Main page
METAR-TAF:

METAR-TAF

Airports :

RAF Topcliffe

Topcliffe, England

latitude: 54-12N, longitude: 001-23W, elevation: 28 m

Current weather observation

The report was made 45 minutes ago, at 12:50 UTC
Wind 21 kt from the South/Southeast
Temperature 16°C
Humidity 45%
Pressure 1010 hPa
Visibility 10 km or more

METAR: EGXZ 051250Z AUTO 15021KT 9999 NCD 16/04 Q1010

Time: 14:35 (13:35 UTC)


TAF: missing

Weather observations and forecasts of more than 4000 airports (METAR and TAF reports).

The available stations are represented by yellow and red dots on the map.

Hover mouse over dot to see the name of the station.

Then click to see weather observations and forecasts.

To change the map : click on the green buttons with a black cross to zoom in, on the green button with a dash to zoom out, or on the green arrows for adjacent maps.


METAR-TAF: